sensor_id;sensor_type;location;lat;lon;timestamp;P1;durP1;ratioP1;P2;durP2;ratioP2
63087;SDS011;49173;43.164;27.786;2023-05-10T00:02:20;7.20;;;4.75;;
63087;SDS011;49173;43.164;27.786;2023-05-10T00:04:46;10.00;;;4.90;;
63087;SDS011;49173;43.164;27.786;2023-05-10T00:07:12;12.07;;;5.57;;
63087;SDS011;49173;43.164;27.786;2023-05-10T00:09:38;7.95;;;5.10;;
63087;SDS011;49173;43.164;27.786;2023-05-10T00:12:04;9.00;;;5.45;;
63087;SDS011;49173;43.164;27.786;2023-05-10T00:14:30;9.77;;;5.13;;
63087;SDS011;49173;43.164;27.786;2023-05-10T00:16:56;7.95;;;5.00;;
63087;SDS011;49173;43.164;27.786;2023-05-10T00:19:22;7.50;;;4.65;;
63087;SDS011;49173;43.164;27.786;2023-05-10T00:21:48;7.32;;;5.00;;
63087;SDS011;49173;43.164;27.786;2023-05-10T00:24:14;8.73;;;5.75;;
63087;SDS011;49173;43.164;27.786;2023-05-10T00:26:40;8.57;;;5.10;;
63087;SDS011;49173;43.164;27.786;2023-05-10T00:29:07;10.75;;;4.95;;
63087;SDS011;49173;43.164;27.786;2023-05-10T00:31:33;6.50;;;4.93;;
63087;SDS011;49173;43.164;27.786;2023-05-10T00:33:59;7.20;;;4.45;;
63087;SDS011;49173;43.164;27.786;2023-05-10T00:36:27;11.85;;;5.88;;
63087;SDS011;49173;43.164;27.786;2023-05-10T00:38:55;6.22;;;4.63;;
63087;SDS011;49173;43.164;27.786;2023-05-10T00:41:21;7.80;;;4.78;;
63087;SDS011;49173;43.164;27.786;2023-05-10T00:43:47;7.30;;;4.95;;
63087;SDS011;49173;43.164;27.786;2023-05-10T00:46:16;13.02;;;4.88;;
63087;SDS011;49173;43.164;27.786;2023-05-10T00:48:43;8.52;;;4.80;;
63087;SDS011;49173;43.164;27.786;2023-05-10T00:51:10;6.43;;;4.57;;
63087;SDS011;49173;43.164;27.786;2023-05-10T00:53:36;8.35;;;5.15;;
63087;SDS011;49173;43.164;27.786;2023-05-10T00:56:02;10.10;;;5.45;;
63087;SDS011;49173;43.164;27.786;2023-05-10T00:58:28;5.95;;;4.68;;
63087;SDS011;49173;43.164;27.786;2023-05-10T01:00:56;7.90;;;5.03;;
63087;SDS011;49173;43.164;27.786;2023-05-10T01:03:23;7.75;;;5.53;;
63087;SDS011;49173;43.164;27.786;2023-05-10T01:05:49;11.93;;;5.25;;
63087;SDS011;49173;43.164;27.786;2023-05-10T01:08:16;7.72;;;5.55;;
63087;SDS011;49173;43.164;27.786;2023-05-10T01:10:43;11.88;;;5.28;;
63087;SDS011;49173;43.164;27.786;2023-05-10T01:13:09;8.00;;;5.28;;
63087;SDS011;49173;43.164;27.786;2023-05-10T01:15:37;10.77;;;4.95;;
63087;SDS011;49173;43.164;27.786;2023-05-10T01:18:04;8.63;;;4.97;;
63087;SDS011;49173;43.164;27.786;2023-05-10T01:20:32;8.75;;;5.40;;
63087;SDS011;49173;43.164;27.786;2023-05-10T01:34:27;11.23;;;5.45;;
63087;SDS011;49173;43.164;27.786;2023-05-10T01:37:02;8.20;;;5.45;;
63087;SDS011;49173;43.164;27.786;2023-05-10T01:42:21;10.30;;;5.15;;
63087;SDS011;49173;43.164;27.786;2023-05-10T01:47:29;8.27;;;5.40;;
63087;SDS011;49173;43.164;27.786;2023-05-10T01:50:04;9.73;;;5.10;;
63087;SDS011;49173;43.164;27.786;2023-05-10T01:52:41;7.63;;;5.32;;
63087;SDS011;49173;43.164;27.786;2023-05-10T01:55:09;9.20;;;5.30;;
63087;SDS011;49173;43.164;27.786;2023-05-10T01:57:40;11.48;;;5.53;;
63087;SDS011;49173;43.164;27.786;2023-05-10T02:00:09;9.73;;;6.10;;
63087;SDS011;49173;43.164;27.786;2023-05-10T02:02:37;7.93;;;5.25;;
63087;SDS011;49173;43.164;27.786;2023-05-10T02:05:07;10.18;;;5.50;;
63087;SDS011;49173;43.164;27.786;2023-05-10T02:07:37;6.63;;;5.05;;
63087;SDS011;49173;43.164;27.786;2023-05-10T02:10:05;11.48;;;5.15;;
63087;SDS011;49173;43.164;27.786;2023-05-10T02:12:36;8.32;;;6.03;;
63087;SDS011;49173;43.164;27.786;2023-05-10T02:15:06;9.73;;;5.50;;
63087;SDS011;49173;43.164;27.786;2023-05-10T02:17:34;8.48;;;5.70;;
63087;SDS011;49173;43.164;27.786;2023-05-10T02:20:03;9.88;;;6.15;;
63087;SDS011;49173;43.164;27.786;2023-05-10T02:22:31;9.60;;;5.43;;
63087;SDS011;49173;43.164;27.786;2023-05-10T02:24:58;9.52;;;5.97;;
63087;SDS011;49173;43.164;27.786;2023-05-10T02:27:26;10.27;;;5.90;;
63087;SDS011;49173;43.164;27.786;2023-05-10T02:29:54;9.52;;;5.28;;
63087;SDS011;49173;43.164;27.786;2023-05-10T02:32:21;9.77;;;5.90;;
63087;SDS011;49173;43.164;27.786;2023-05-10T02:34:48;7.97;;;5.70;;
63087;SDS011;49173;43.164;27.786;2023-05-10T02:37:18;10.77;;;6.38;;
63087;SDS011;49173;43.164;27.786;2023-05-10T02:39:48;9.50;;;6.20;;
63087;SDS011;49173;43.164;27.786;2023-05-10T02:42:16;9.13;;;5.88;;
63087;SDS011;49173;43.164;27.786;2023-05-10T02:44:48;8.73;;;6.10;;
63087;SDS011;49173;43.164;27.786;2023-05-10T02:47:15;9.80;;;5.60;;
63087;SDS011;49173;43.164;27.786;2023-05-10T02:49:43;8.07;;;5.80;;
63087;SDS011;49173;43.164;27.786;2023-05-10T02:52:08;10.80;;;5.50;;
63087;SDS011;49173;43.164;27.786;2023-05-10T02:54:39;10.15;;;6.13;;
63087;SDS011;49173;43.164;27.786;2023-05-10T02:57:09;7.15;;;5.57;;
63087;SDS011;49173;43.164;27.786;2023-05-10T02:59:40;10.27;;;6.13;;
63087;SDS011;49173;43.164;27.786;2023-05-10T03:02:08;7.60;;;5.50;;
63087;SDS011;49173;43.164;27.786;2023-05-10T03:04:35;8.93;;;6.18;;
63087;SDS011;49173;43.164;27.786;2023-05-10T03:07:02;10.85;;;5.78;;
63087;SDS011;49173;43.164;27.786;2023-05-10T03:09:28;10.38;;;5.78;;
63087;SDS011;49173;43.164;27.786;2023-05-10T03:12:07;14.23;;;6.80;;
63087;SDS011;49173;43.164;27.786;2023-05-10T03:17:40;7.47;;;6.00;;
63087;SDS011;49173;43.164;27.786;2023-05-10T03:20:52;15.32;;;6.43;;
63087;SDS011;49173;43.164;27.786;2023-05-10T03:23:27;8.38;;;5.70;;
63087;SDS011;49173;43.164;27.786;2023-05-10T03:25:59;10.15;;;6.40;;
63087;SDS011;49173;43.164;27.786;2023-05-10T03:28:26;10.02;;;6.28;;
63087;SDS011;49173;43.164;27.786;2023-05-10T03:30:53;12.05;;;6.80;;
63087;SDS011;49173;43.164;27.786;2023-05-10T03:33:20;8.52;;;6.10;;
63087;SDS011;49173;43.164;27.786;2023-05-10T03:35:46;12.77;;;6.50;;
63087;SDS011;49173;43.164;27.786;2023-05-10T03:38:12;13.73;;;6.30;;
63087;SDS011;49173;43.164;27.786;2023-05-10T03:40:38;12.85;;;6.43;;
63087;SDS011;49173;43.164;27.786;2023-05-10T03:43:04;8.57;;;6.28;;
63087;SDS011;49173;43.164;27.786;2023-05-10T03:45:30;11.48;;;6.07;;
63087;SDS011;49173;43.164;27.786;2023-05-10T03:47:56;7.55;;;5.75;;
63087;SDS011;49173;43.164;27.786;2023-05-10T03:50:23;9.35;;;6.30;;
63087;SDS011;49173;43.164;27.786;2023-05-10T03:53:07;13.25;;;6.32;;
63087;SDS011;49173;43.164;27.786;2023-05-10T03:55:33;9.93;;;5.70;;
63087;SDS011;49173;43.164;27.786;2023-05-10T03:58:01;9.70;;;6.80;;
63087;SDS011;49173;43.164;27.786;2023-05-10T04:00:27;10.13;;;6.45;;
63087;SDS011;49173;43.164;27.786;2023-05-10T04:03:11;9.38;;;6.50;;
63087;SDS011;49173;43.164;27.786;2023-05-10T04:05:37;11.68;;;6.88;;
63087;SDS011;49173;43.164;27.786;2023-05-10T04:08:03;11.40;;;6.65;;
63087;SDS011;49173;43.164;27.786;2023-05-10T04:10:29;11.13;;;6.68;;
63087;SDS011;49173;43.164;27.786;2023-05-10T04:12:55;8.52;;;6.40;;
63087;SDS011;49173;43.164;27.786;2023-05-10T04:15:21;10.40;;;7.35;;
63087;SDS011;49173;43.164;27.786;2023-05-10T04:17:47;11.38;;;6.72;;
63087;SDS011;49173;43.164;27.786;2023-05-10T04:20:13;10.05;;;6.90;;
63087;SDS011;49173;43.164;27.786;2023-05-10T04:22:39;12.48;;;6.85;;
63087;SDS011;49173;43.164;27.786;2023-05-10T04:25:06;9.07;;;6.35;;
63087;SDS011;49173;43.164;27.786;2023-05-10T04:27:35;10.90;;;7.35;;
63087;SDS011;49173;43.164;27.786;2023-05-10T04:30:01;10.93;;;7.20;;
63087;SDS011;49173;43.164;27.786;2023-05-10T04:32:28;9.18;;;7.30;;
63087;SDS011;49173;43.164;27.786;2023-05-10T04:34:56;11.80;;;7.03;;
63087;SDS011;49173;43.164;27.786;2023-05-10T04:37:22;16.77;;;7.60;;
63087;SDS011;49173;43.164;27.786;2023-05-10T04:39:48;8.88;;;6.90;;
63087;SDS011;49173;43.164;27.786;2023-05-10T04:42:13;10.00;;;6.85;;
63087;SDS011;49173;43.164;27.786;2023-05-10T04:44:40;12.02;;;6.22;;
63087;SDS011;49173;43.164;27.786;2023-05-10T04:47:06;8.68;;;6.22;;
63087;SDS011;49173;43.164;27.786;2023-05-10T04:49:32;8.45;;;6.00;;
63087;SDS011;49173;43.164;27.786;2023-05-10T04:51:57;8.70;;;6.18;;
63087;SDS011;49173;43.164;27.786;2023-05-10T04:54:23;9.38;;;6.40;;
63087;SDS011;49173;43.164;27.786;2023-05-10T04:56:49;9.35;;;6.43;;
63087;SDS011;49173;43.164;27.786;2023-05-10T04:59:21;10.73;;;6.57;;
63087;SDS011;49173;43.164;27.786;2023-05-10T05:01:50;9.57;;;6.60;;
63087;SDS011;49173;43.164;27.786;2023-05-10T05:04:20;11.68;;;6.75;;
63087;SDS011;49173;43.164;27.786;2023-05-10T05:09:15;10.75;;;6.00;;
63087;SDS011;49173;43.164;27.786;2023-05-10T05:11:48;9.07;;;6.20;;
63087;SDS011;49173;43.164;27.786;2023-05-10T05:14:14;11.88;;;6.80;;
63087;SDS011;49173;43.164;27.786;2023-05-10T05:16:41;8.52;;;6.03;;
63087;SDS011;49173;43.164;27.786;2023-05-10T05:19:07;10.02;;;5.95;;
63087;SDS011;49173;43.164;27.786;2023-05-10T05:21:34;8.13;;;5.82;;
63087;SDS011;49173;43.164;27.786;2023-05-10T05:24:04;8.73;;;5.88;;
63087;SDS011;49173;43.164;27.786;2023-05-10T05:26:33;7.25;;;5.88;;
63087;SDS011;49173;43.164;27.786;2023-05-10T05:29:03;9.88;;;6.53;;
63087;SDS011;49173;43.164;27.786;2023-05-10T05:31:33;9.05;;;6.03;;
63087;SDS011;49173;43.164;27.786;2023-05-10T05:34:01;8.93;;;6.00;;
63087;SDS011;49173;43.164;27.786;2023-05-10T05:36:27;8.63;;;6.03;;
63087;SDS011;49173;43.164;27.786;2023-05-10T05:39:04;9.70;;;5.97;;
63087;SDS011;49173;43.164;27.786;2023-05-10T05:41:30;9.60;;;5.50;;
63087;SDS011;49173;43.164;27.786;2023-05-10T05:43:57;10.57;;;6.00;;
63087;SDS011;49173;43.164;27.786;2023-05-10T05:46:26;9.18;;;5.55;;
63087;SDS011;49173;43.164;27.786;2023-05-10T05:48:54;9.75;;;5.97;;
63087;SDS011;49173;43.164;27.786;2023-05-10T05:51:21;7.50;;;5.18;;
63087;SDS011;49173;43.164;27.786;2023-05-10T05:56:17;5.10;;;3.38;;
63087;SDS011;49173;43.164;27.786;2023-05-10T05:58:50;8.85;;;4.57;;
63087;SDS011;49173;43.164;27.786;2023-05-10T06:03:45;5.22;;;3.60;;
63087;SDS011;49173;43.164;27.786;2023-05-10T06:06:13;7.15;;;3.67;;
63087;SDS011;49173;43.164;27.786;2023-05-10T06:08:42;5.30;;;3.47;;
63087;SDS011;49173;43.164;27.786;2023-05-10T06:11:11;5.70;;;2.75;;
63087;SDS011;49173;43.164;27.786;2023-05-10T06:13:42;3.90;;;2.22;;
63087;SDS011;49173;43.164;27.786;2023-05-10T06:16:14;2.80;;;2.10;;
63087;SDS011;49173;43.164;27.786;2023-05-10T06:18:40;4.63;;;2.40;;
63087;SDS011;49173;43.164;27.786;2023-05-10T06:21:09;3.00;;;2.25;;
63087;SDS011;49173;43.164;27.786;2023-05-10T06:23:39;2.95;;;2.15;;
63087;SDS011;49173;43.164;27.786;2023-05-10T06:26:09;6.80;;;2.42;;
63087;SDS011;49173;43.164;27.786;2023-05-10T06:31:06;3.42;;;2.22;;
63087;SDS011;49173;43.164;27.786;2023-05-10T06:33:33;4.20;;;2.30;;
63087;SDS011;49173;43.164;27.786;2023-05-10T06:36:00;4.32;;;2.33;;
63087;SDS011;49173;43.164;27.786;2023-05-10T06:38:33;4.35;;;2.55;;
63087;SDS011;49173;43.164;27.786;2023-05-10T06:41:01;4.43;;;2.63;;
63087;SDS011;49173;43.164;27.786;2023-05-10T06:43:28;3.45;;;2.78;;
63087;SDS011;49173;43.164;27.786;2023-05-10T06:45:57;6.13;;;2.55;;
63087;SDS011;49173;43.164;27.786;2023-05-10T06:48:26;3.95;;;2.30;;
63087;SDS011;49173;43.164;27.786;2023-05-10T06:50:55;4.68;;;2.53;;
63087;SDS011;49173;43.164;27.786;2023-05-10T06:53:24;4.20;;;2.70;;
63087;SDS011;49173;43.164;27.786;2023-05-10T06:55:55;5.03;;;2.63;;
63087;SDS011;49173;43.164;27.786;2023-05-10T06:58:26;5.07;;;2.85;;
63087;SDS011;49173;43.164;27.786;2023-05-10T07:00:52;4.38;;;3.40;;
63087;SDS011;49173;43.164;27.786;2023-05-10T07:03:26;3.58;;;2.47;;
63087;SDS011;49173;43.164;27.786;2023-05-10T07:05:53;5.60;;;2.75;;
63087;SDS011;49173;43.164;27.786;2023-05-10T07:08:20;5.18;;;2.60;;
63087;SDS011;49173;43.164;27.786;2023-05-10T07:10:47;3.95;;;2.90;;
63087;SDS011;49173;43.164;27.786;2023-05-10T07:13:16;5.65;;;2.58;;
63087;SDS011;49173;43.164;27.786;2023-05-10T07:18:12;4.40;;;2.47;;
63087;SDS011;49173;43.164;27.786;2023-05-10T07:20:38;7.60;;;2.80;;
63087;SDS011;49173;43.164;27.786;2023-05-10T07:23:08;5.63;;;2.60;;
63087;SDS011;49173;43.164;27.786;2023-05-10T07:25:36;3.88;;;2.60;;
63087;SDS011;49173;43.164;27.786;2023-05-10T07:28:04;4.53;;;2.70;;
63087;SDS011;49173;43.164;27.786;2023-05-10T07:30:34;3.95;;;2.60;;
63087;SDS011;49173;43.164;27.786;2023-05-10T07:33:03;5.40;;;2.65;;
63087;SDS011;49173;43.164;27.786;2023-05-10T07:35:35;4.18;;;2.35;;
63087;SDS011;49173;43.164;27.786;2023-05-10T07:38:05;5.20;;;2.40;;
63087;SDS011;49173;43.164;27.786;2023-05-10T07:40:33;4.68;;;2.53;;
63087;SDS011;49173;43.164;27.786;2023-05-10T07:42:59;3.78;;;2.70;;
63087;SDS011;49173;43.164;27.786;2023-05-10T07:45:27;5.00;;;2.47;;
63087;SDS011;49173;43.164;27.786;2023-05-10T07:47:55;4.38;;;2.55;;
63087;SDS011;49173;43.164;27.786;2023-05-10T07:50:24;4.07;;;2.55;;
63087;SDS011;49173;43.164;27.786;2023-05-10T07:52:51;4.30;;;2.38;;
63087;SDS011;49173;43.164;27.786;2023-05-10T07:55:19;4.60;;;2.45;;
63087;SDS011;49173;43.164;27.786;2023-05-10T07:57:47;5.45;;;2.42;;
63087;SDS011;49173;43.164;27.786;2023-05-10T08:00:17;6.37;;;4.77;;
63087;SDS011;49173;43.164;27.786;2023-05-10T08:02:48;4.97;;;3.30;;
63087;SDS011;49173;43.164;27.786;2023-05-10T08:05:19;5.13;;;2.50;;
63087;SDS011;49173;43.164;27.786;2023-05-10T08:07:46;5.60;;;2.20;;
63087;SDS011;49173;43.164;27.786;2023-05-10T08:10:17;4.97;;;2.50;;
63087;SDS011;49173;43.164;27.786;2023-05-10T08:12:44;7.68;;;3.08;;
63087;SDS011;49173;43.164;27.786;2023-05-10T08:15:10;3.15;;;2.40;;
63087;SDS011;49173;43.164;27.786;2023-05-10T08:17:38;4.72;;;3.05;;
63087;SDS011;49173;43.164;27.786;2023-05-10T08:20:04;3.75;;;2.70;;
63087;SDS011;49173;43.164;27.786;2023-05-10T08:22:31;3.88;;;2.30;;
63087;SDS011;49173;43.164;27.786;2023-05-10T08:25:01;5.30;;;2.60;;
63087;SDS011;49173;43.164;27.786;2023-05-10T08:29:57;6.47;;;2.45;;
63087;SDS011;49173;43.164;27.786;2023-05-10T08:32:28;5.45;;;2.53;;
63087;SDS011;49173;43.164;27.786;2023-05-10T08:34:58;4.55;;;2.38;;
63087;SDS011;49173;43.164;27.786;2023-05-10T08:37:29;9.70;;;2.90;;
63087;SDS011;49173;43.164;27.786;2023-05-10T08:39:57;5.80;;;2.60;;
63087;SDS011;49173;43.164;27.786;2023-05-10T08:42:25;5.90;;;2.70;;
63087;SDS011;49173;43.164;27.786;2023-05-10T08:45:03;5.07;;;2.70;;
63087;SDS011;49173;43.164;27.786;2023-05-10T08:47:31;4.53;;;2.60;;
63087;SDS011;49173;43.164;27.786;2023-05-10T08:49:57;4.65;;;2.85;;
63087;SDS011;49173;43.164;27.786;2023-05-10T08:52:30;4.03;;;2.55;;
63087;SDS011;49173;43.164;27.786;2023-05-10T08:54:58;6.38;;;2.83;;
63087;SDS011;49173;43.164;27.786;2023-05-10T08:57:25;4.63;;;2.47;;
63087;SDS011;49173;43.164;27.786;2023-05-10T09:02:20;6.38;;;2.35;;
63087;SDS011;49173;43.164;27.786;2023-05-10T09:04:49;3.43;;;2.30;;
63087;SDS011;49173;43.164;27.786;2023-05-10T09:07:18;3.80;;;2.40;;
63087;SDS011;49173;43.164;27.786;2023-05-10T09:09:45;6.88;;;2.75;;
63087;SDS011;49173;43.164;27.786;2023-05-10T09:12:13;6.10;;;3.90;;
63087;SDS011;49173;43.164;27.786;2023-05-10T09:14:43;3.60;;;2.40;;
63087;SDS011;49173;43.164;27.786;2023-05-10T09:17:13;4.95;;;2.53;;
63087;SDS011;49173;43.164;27.786;2023-05-10T09:19:39;5.07;;;2.40;;
63087;SDS011;49173;43.164;27.786;2023-05-10T09:22:07;3.88;;;2.55;;
63087;SDS011;49173;43.164;27.786;2023-05-10T09:24:34;3.53;;;2.25;;
63087;SDS011;49173;43.164;27.786;2023-05-10T09:27:10;3.38;;;2.20;;
63087;SDS011;49173;43.164;27.786;2023-05-10T09:29:43;6.43;;;2.95;;
63087;SDS011;49173;43.164;27.786;2023-05-10T09:32:14;3.72;;;2.47;;
63087;SDS011;49173;43.164;27.786;2023-05-10T09:34:43;5.43;;;2.50;;
63087;SDS011;49173;43.164;27.786;2023-05-10T09:37:11;4.05;;;2.15;;
63087;SDS011;49173;43.164;27.786;2023-05-10T09:39:40;4.37;;;2.60;;
63087;SDS011;49173;43.164;27.786;2023-05-10T09:42:09;3.35;;;2.60;;
63087;SDS011;49173;43.164;27.786;2023-05-10T09:47:07;3.75;;;2.63;;
63087;SDS011;49173;43.164;27.786;2023-05-10T09:49:33;3.00;;;2.50;;
63087;SDS011;49173;43.164;27.786;2023-05-10T09:52:04;4.55;;;2.42;;
63087;SDS011;49173;43.164;27.786;2023-05-10T09:54:33;3.63;;;2.63;;
63087;SDS011;49173;43.164;27.786;2023-05-10T09:57:03;3.65;;;2.70;;
63087;SDS011;49173;43.164;27.786;2023-05-10T09:59:44;3.92;;;2.63;;
63087;SDS011;49173;43.164;27.786;2023-05-10T10:02:11;5.63;;;3.03;;
63087;SDS011;49173;43.164;27.786;2023-05-10T10:04:39;5.57;;;2.60;;
63087;SDS011;49173;43.164;27.786;2023-05-10T10:07:07;3.80;;;2.43;;
63087;SDS011;49173;43.164;27.786;2023-05-10T10:12:09;6.38;;;2.63;;
63087;SDS011;49173;43.164;27.786;2023-05-10T10:14:41;4.38;;;2.55;;
63087;SDS011;49173;43.164;27.786;2023-05-10T10:17:11;5.65;;;2.58;;
63087;SDS011;49173;43.164;27.786;2023-05-10T10:19:38;4.60;;;2.70;;
63087;SDS011;49173;43.164;27.786;2023-05-10T10:22:08;4.25;;;2.78;;
63087;SDS011;49173;43.164;27.786;2023-05-10T10:24:38;5.55;;;2.75;;
63087;SDS011;49173;43.164;27.786;2023-05-10T10:27:28;4.90;;;2.40;;
63087;SDS011;49173;43.164;27.786;2023-05-10T10:30:12;5.57;;;2.50;;
63087;SDS011;49173;43.164;27.786;2023-05-10T10:32:59;5.32;;;2.60;;
63087;SDS011;49173;43.164;27.786;2023-05-10T10:35:48;6.30;;;2.97;;
63087;SDS011;49173;43.164;27.786;2023-05-10T10:38:18;5.78;;;2.85;;
63087;SDS011;49173;43.164;27.786;2023-05-10T10:40:47;4.78;;;2.58;;
63087;SDS011;49173;43.164;27.786;2023-05-10T10:43:26;5.33;;;2.33;;
63087;SDS011;49173;43.164;27.786;2023-05-10T10:46:11;4.22;;;2.53;;
63087;SDS011;49173;43.164;27.786;2023-05-10T10:48:49;3.92;;;2.50;;
63087;SDS011;49173;43.164;27.786;2023-05-10T10:51:39;5.57;;;2.47;;
63087;SDS011;49173;43.164;27.786;2023-05-10T10:54:27;3.92;;;2.30;;
63087;SDS011;49173;43.164;27.786;2023-05-10T10:57:12;4.60;;;2.72;;
63087;SDS011;49173;43.164;27.786;2023-05-10T10:59:42;5.47;;;2.80;;
63087;SDS011;49173;43.164;27.786;2023-05-10T11:02:43;3.97;;;2.60;;
63087;SDS011;49173;43.164;27.786;2023-05-10T11:08:13;3.53;;;2.30;;
63087;SDS011;49173;43.164;27.786;2023-05-10T11:13:33;3.83;;;2.60;;
63087;SDS011;49173;43.164;27.786;2023-05-10T11:16:11;3.38;;;2.17;;
63087;SDS011;49173;43.164;27.786;2023-05-10T11:18:59;4.43;;;2.40;;
63087;SDS011;49173;43.164;27.786;2023-05-10T11:21:32;3.95;;;2.40;;
63087;SDS011;49173;43.164;27.786;2023-05-10T11:24:14;5.35;;;2.20;;
63087;SDS011;49173;43.164;27.786;2023-05-10T11:26:44;8.05;;;2.50;;
63087;SDS011;49173;43.164;27.786;2023-05-10T11:29:12;5.88;;;2.47;;
63087;SDS011;49173;43.164;27.786;2023-05-10T11:31:52;5.75;;;2.53;;
63087;SDS011;49173;43.164;27.786;2023-05-10T11:34:26;7.22;;;2.63;;
63087;SDS011;49173;43.164;27.786;2023-05-10T11:36:56;5.57;;;2.60;;
63087;SDS011;49173;43.164;27.786;2023-05-10T11:39:27;5.88;;;2.40;;
63087;SDS011;49173;43.164;27.786;2023-05-10T11:41:57;4.35;;;2.40;;
63087;SDS011;49173;43.164;27.786;2023-05-10T11:44:29;4.43;;;2.50;;
63087;SDS011;49173;43.164;27.786;2023-05-10T11:47:00;5.05;;;2.60;;
63087;SDS011;49173;43.164;27.786;2023-05-10T11:49:29;4.10;;;2.30;;
63087;SDS011;49173;43.164;27.786;2023-05-10T11:52:07;4.30;;;2.33;;
63087;SDS011;49173;43.164;27.786;2023-05-10T11:54:44;4.50;;;2.38;;
63087;SDS011;49173;43.164;27.786;2023-05-10T11:57:20;5.63;;;2.30;;
63087;SDS011;49173;43.164;27.786;2023-05-10T11:59:56;5.10;;;2.25;;
63087;SDS011;49173;43.164;27.786;2023-05-10T12:02:23;4.00;;;2.40;;
63087;SDS011;49173;43.164;27.786;2023-05-10T12:04:51;4.70;;;2.20;;
63087;SDS011;49173;43.164;27.786;2023-05-10T12:07:20;7.30;;;2.50;;
63087;SDS011;49173;43.164;27.786;2023-05-10T12:12:43;6.00;;;2.45;;
63087;SDS011;49173;43.164;27.786;2023-05-10T12:15:12;4.03;;;2.50;;
63087;SDS011;49173;43.164;27.786;2023-05-10T12:17:49;3.55;;;2.00;;
63087;SDS011;49173;43.164;27.786;2023-05-10T12:20:17;3.42;;;2.47;;
63087;SDS011;49173;43.164;27.786;2023-05-10T12:25:22;4.68;;;2.10;;
63087;SDS011;49173;43.164;27.786;2023-05-10T12:27:54;3.55;;;1.95;;
63087;SDS011;49173;43.164;27.786;2023-05-10T12:30:31;4.95;;;2.70;;
63087;SDS011;49173;43.164;27.786;2023-05-10T12:33:02;5.07;;;2.53;;
63087;SDS011;49173;43.164;27.786;2023-05-10T12:35:46;3.40;;;2.28;;
63087;SDS011;49173;43.164;27.786;2023-05-10T12:40:59;3.38;;;2.22;;
63087;SDS011;49173;43.164;27.786;2023-05-10T12:43:32;4.28;;;2.25;;
63087;SDS011;49173;43.164;27.786;2023-05-10T12:46:25;5.88;;;2.20;;
63087;SDS011;49173;43.164;27.786;2023-05-10T12:48:53;4.90;;;2.25;;
63087;SDS011;49173;43.164;27.786;2023-05-10T12:51:23;5.20;;;2.20;;
63087;SDS011;49173;43.164;27.786;2023-05-10T12:53:53;5.78;;;2.28;;
63087;SDS011;49173;43.164;27.786;2023-05-10T12:56:22;4.75;;;2.20;;
63087;SDS011;49173;43.164;27.786;2023-05-10T12:58:50;4.57;;;2.40;;
63087;SDS011;49173;43.164;27.786;2023-05-10T13:01:16;5.43;;;2.65;;
63087;SDS011;49173;43.164;27.786;2023-05-10T13:03:44;5.05;;;2.53;;
63087;SDS011;49173;43.164;27.786;2023-05-10T13:06:12;5.57;;;2.17;;
63087;SDS011;49173;43.164;27.786;2023-05-10T13:08:39;5.65;;;2.20;;
63087;SDS011;49173;43.164;27.786;2023-05-10T13:11:06;4.68;;;1.98;;
63087;SDS011;49173;43.164;27.786;2023-05-10T13:13:36;4.47;;;2.65;;
63087;SDS011;49173;43.164;27.786;2023-05-10T13:16:04;4.03;;;2.40;;
63087;SDS011;49173;43.164;27.786;2023-05-10T13:18:31;5.53;;;2.30;;
63087;SDS011;49173;43.164;27.786;2023-05-10T13:21:01;4.10;;;2.30;;
63087;SDS011;49173;43.164;27.786;2023-05-10T13:23:32;8.40;;;2.25;;
63087;SDS011;49173;43.164;27.786;2023-05-10T13:26:02;4.85;;;2.22;;
63087;SDS011;49173;43.164;27.786;2023-05-10T13:28:28;3.38;;;1.95;;
63087;SDS011;49173;43.164;27.786;2023-05-10T13:30:55;4.50;;;2.15;;
63087;SDS011;49173;43.164;27.786;2023-05-10T13:33:25;5.57;;;2.15;;
63087;SDS011;49173;43.164;27.786;2023-05-10T13:35:55;3.53;;;2.22;;
63087;SDS011;49173;43.164;27.786;2023-05-10T13:38:22;5.15;;;2.10;;
63087;SDS011;49173;43.164;27.786;2023-05-10T13:40:48;3.80;;;2.13;;
63087;SDS011;49173;43.164;27.786;2023-05-10T13:43:18;4.10;;;2.33;;
63087;SDS011;49173;43.164;27.786;2023-05-10T13:45:45;5.13;;;2.28;;
63087;SDS011;49173;43.164;27.786;2023-05-10T13:48:15;3.47;;;1.83;;
63087;SDS011;49173;43.164;27.786;2023-05-10T13:50:44;7.60;;;2.30;;
63087;SDS011;49173;43.164;27.786;2023-05-10T13:53:10;4.55;;;2.47;;
63087;SDS011;49173;43.164;27.786;2023-05-10T13:55:39;6.10;;;2.20;;
63087;SDS011;49173;43.164;27.786;2023-05-10T13:58:08;4.50;;;2.30;;
63087;SDS011;49173;43.164;27.786;2023-05-10T14:00:37;3.60;;;2.40;;
63087;SDS011;49173;43.164;27.786;2023-05-10T14:03:07;4.13;;;2.10;;
63087;SDS011;49173;43.164;27.786;2023-05-10T14:05:36;3.28;;;2.10;;
63087;SDS011;49173;43.164;27.786;2023-05-10T14:08:02;3.22;;;2.00;;
63087;SDS011;49173;43.164;27.786;2023-05-10T14:10:29;7.20;;;2.10;;
63087;SDS011;49173;43.164;27.786;2023-05-10T14:12:56;3.47;;;2.25;;
63087;SDS011;49173;43.164;27.786;2023-05-10T14:15:27;6.05;;;2.00;;
63087;SDS011;49173;43.164;27.786;2023-05-10T14:17:54;5.50;;;2.38;;
63087;SDS011;49173;43.164;27.786;2023-05-10T14:20:21;4.32;;;1.90;;
63087;SDS011;49173;43.164;27.786;2023-05-10T14:22:51;7.18;;;2.22;;
63087;SDS011;49173;43.164;27.786;2023-05-10T14:25:22;3.88;;;2.05;;
63087;SDS011;49173;43.164;27.786;2023-05-10T14:27:50;4.50;;;2.50;;
63087;SDS011;49173;43.164;27.786;2023-05-10T14:30:16;3.50;;;1.98;;
63087;SDS011;49173;43.164;27.786;2023-05-10T14:32:42;5.18;;;2.13;;
63087;SDS011;49173;43.164;27.786;2023-05-10T14:35:12;5.03;;;2.30;;
63087;SDS011;49173;43.164;27.786;2023-05-10T14:37:43;5.25;;;2.30;;
63087;SDS011;49173;43.164;27.786;2023-05-10T14:40:09;5.80;;;2.10;;
63087;SDS011;49173;43.164;27.786;2023-05-10T14:42:39;3.30;;;2.10;;
63087;SDS011;49173;43.164;27.786;2023-05-10T14:45:07;4.53;;;2.15;;
63087;SDS011;49173;43.164;27.786;2023-05-10T14:47:34;8.23;;;2.20;;
63087;SDS011;49173;43.164;27.786;2023-05-10T14:50:06;6.72;;;2.70;;
63087;SDS011;49173;43.164;27.786;2023-05-10T14:52:35;3.67;;;2.20;;
63087;SDS011;49173;43.164;27.786;2023-05-10T14:55:04;7.20;;;2.22;;
63087;SDS011;49173;43.164;27.786;2023-05-10T14:57:31;5.70;;;1.95;;
63087;SDS011;49173;43.164;27.786;2023-05-10T15:00:00;5.70;;;2.20;;
63087;SDS011;49173;43.164;27.786;2023-05-10T15:02:33;5.00;;;1.85;;
63087;SDS011;49173;43.164;27.786;2023-05-10T15:05:04;4.40;;;2.15;;
63087;SDS011;49173;43.164;27.786;2023-05-10T15:07:32;5.03;;;2.15;;
63087;SDS011;49173;43.164;27.786;2023-05-10T15:10:00;5.07;;;2.28;;
63087;SDS011;49173;43.164;27.786;2023-05-10T15:12:28;6.55;;;2.58;;
63087;SDS011;49173;43.164;27.786;2023-05-10T15:14:54;5.55;;;2.45;;
63087;SDS011;49173;43.164;27.786;2023-05-10T15:17:24;6.97;;;2.33;;
63087;SDS011;49173;43.164;27.786;2023-05-10T15:19:55;3.65;;;2.28;;
63087;SDS011;49173;43.164;27.786;2023-05-10T15:22:22;7.30;;;2.40;;
63087;SDS011;49173;43.164;27.786;2023-05-10T15:24:55;6.47;;;2.35;;
63087;SDS011;49173;43.164;27.786;2023-05-10T15:27:22;6.55;;;2.45;;
63087;SDS011;49173;43.164;27.786;2023-05-10T15:29:54;3.13;;;2.33;;
63087;SDS011;49173;43.164;27.786;2023-05-10T15:32:21;6.15;;;2.67;;
63087;SDS011;49173;43.164;27.786;2023-05-10T15:34:51;4.32;;;2.53;;
63087;SDS011;49173;43.164;27.786;2023-05-10T15:37:18;8.32;;;2.40;;
63087;SDS011;49173;43.164;27.786;2023-05-10T15:39:45;3.78;;;2.38;;
63087;SDS011;49173;43.164;27.786;2023-05-10T15:42:12;7.07;;;2.47;;
63087;SDS011;49173;43.164;27.786;2023-05-10T15:44:39;7.47;;;2.25;;